createdAt,value
2019-01-21T00:02:27.304Z,-1.60
2019-01-21T00:04:57.386Z,-1.70
2019-01-21T00:07:28.093Z,-1.60
2019-01-21T00:09:58.297Z,-1.40
2019-01-21T00:12:29.186Z,-1.80
2019-01-21T00:14:59.154Z,-1.70
2019-01-21T00:17:29.214Z,-2.00
2019-01-21T00:19:59.270Z,-1.90
2019-01-21T00:22:29.310Z,-1.90
2019-01-21T00:24:59.363Z,-1.90
2019-01-21T00:27:29.339Z,-1.80
2019-01-21T00:29:59.421Z,-2.00
2019-01-21T00:32:29.349Z,-1.90
2019-01-21T00:34:59.368Z,-1.90
2019-01-21T00:37:29.811Z,-1.90
2019-01-21T00:39:59.916Z,-1.90
2019-01-21T00:42:29.853Z,-1.90
2019-01-21T00:44:59.875Z,-2.00
2019-01-21T00:47:30.323Z,-1.90
2019-01-21T00:50:00.434Z,-1.90
2019-01-21T00:52:30.587Z,-1.80
2019-01-21T00:55:02.615Z,-1.80
2019-01-21T00:57:32.623Z,-1.70
2019-01-21T01:00:02.695Z,-1.80
2019-01-21T01:02:32.715Z,-1.70
2019-01-21T01:05:03.151Z,-1.90
2019-01-21T01:07:33.268Z,-1.70
2019-01-21T01:10:15.018Z,-1.70
2019-01-21T01:12:45.537Z,-1.80
2019-01-21T01:15:16.239Z,-1.50
2019-01-21T01:17:46.422Z,-1.60
2019-01-21T01:20:21.733Z,-1.60
2019-01-21T01:22:52.007Z,-1.50
2019-01-21T01:25:22.222Z,-1.70
2019-01-21T01:27:52.374Z,-1.80
2019-01-21T01:30:22.448Z,-1.90
2019-01-21T01:32:52.380Z,-2.00
2019-01-21T01:35:22.480Z,-1.80
2019-01-21T01:37:53.550Z,-1.80
2019-01-21T01:40:23.723Z,-1.80
2019-01-21T01:42:53.895Z,-1.60
2019-01-21T01:45:26.550Z,-1.70
2019-01-21T01:48:07.312Z,-1.70
2019-01-21T01:50:37.423Z,-1.90
2019-01-21T01:53:07.570Z,-1.90
2019-01-21T01:55:38.811Z,-2.00
2019-01-21T01:58:09.482Z,-1.90
2019-01-21T02:00:39.567Z,-2.00
2019-01-21T02:03:09.580Z,-2.00
2019-01-21T02:05:39.573Z,-2.10
2019-01-21T02:08:10.078Z,-1.90
2019-01-21T02:10:40.179Z,-1.80
2019-01-21T02:13:10.348Z,-1.70
2019-01-21T02:15:40.492Z,-1.70
2019-01-21T02:18:10.490Z,-1.80
2019-01-21T02:20:42.076Z,-1.90
2019-01-21T02:23:17.729Z,-1.90
2019-01-21T02:26:02.169Z,-2.00
2019-01-21T02:29:03.958Z,-1.90
2019-01-21T02:32:28.235Z,-2.00
2019-01-21T02:36:03.157Z,-2.00
2019-01-21T02:39:30.838Z,-2.00
2019-01-21T02:42:32.412Z,-1.90
2019-01-21T02:45:47.874Z,-1.90
2019-01-21T02:48:50.702Z,-2.20
2019-01-21T02:52:24.636Z,-2.10
2019-01-21T02:55:33.390Z,-2.10
2019-01-21T02:58:58.828Z,-2.20
2019-01-21T03:02:25.760Z,-2.10
2019-01-21T03:05:33.365Z,-2.00
2019-01-21T03:08:42.266Z,-2.10
2019-01-21T03:11:49.983Z,-2.00
2019-01-21T03:15:24.771Z,-1.70
2019-01-21T03:18:43.944Z,-1.70
2019-01-21T03:22:31.263Z,-1.90
2019-01-21T03:25:43.425Z,-2.10
2019-01-21T03:28:53.268Z,-2.00
2019-01-21T03:32:27.513Z,-1.90
2019-01-21T03:35:54.264Z,-1.80
2019-01-21T03:39:27.722Z,-1.90
2019-01-21T03:42:44.496Z,-2.00
2019-01-21T03:46:08.495Z,-1.90
2019-01-21T03:48:56.740Z,-1.70
2019-01-21T03:52:34.465Z,-1.90
2019-01-21T03:55:11.407Z,-2.00
2019-01-21T03:59:08.430Z,-2.00
2019-01-21T04:02:38.906Z,-2.00
2019-01-21T04:05:29.590Z,-1.90
2019-01-21T04:09:30.394Z,-1.70
2019-01-21T04:12:42.621Z,-1.90
2019-01-21T04:15:55.140Z,-1.90
2019-01-21T04:19:29.194Z,-1.50
2019-01-21T04:23:06.863Z,-1.70
2019-01-21T04:26:19.365Z,-1.90
2019-01-21T04:32:01.750Z,-1.80
2019-01-21T04:35:26.130Z,-2.00
2019-01-21T04:38:52.530Z,-1.90
2019-01-21T04:42:38.140Z,-1.90
2019-01-21T04:45:38.316Z,-1.90
2019-01-21T04:48:42.414Z,-2.00
2019-01-21T04:51:45.874Z,-2.00
2019-01-21T04:54:58.666Z,-1.90
2019-01-21T04:58:26.146Z,-2.00
2019-01-21T05:01:45.066Z,-2.10
2019-01-21T05:05:05.395Z,-2.00
2019-01-21T05:08:30.993Z,-1.80
2019-01-21T05:11:54.969Z,-1.60
2019-01-21T05:15:05.832Z,-1.60
2019-01-21T05:18:12.927Z,-1.70
2019-01-21T05:21:57.762Z,-1.90
2019-01-21T05:25:26.235Z,-1.90
2019-01-21T05:28:51.813Z,-1.80
2019-01-21T05:32:16.797Z,-1.90
2019-01-21T05:35:48.307Z,-1.80
2019-01-21T05:38:50.156Z,-1.90
2019-01-21T05:42:04.108Z,-1.90
2019-01-21T05:45:11.104Z,-1.90
2019-01-21T05:48:27.113Z,-1.70
2019-01-21T05:51:47.288Z,-1.80
2019-01-21T05:55:34.386Z,-2.00
2019-01-21T05:58:58.974Z,-2.10
2019-01-21T06:02:05.164Z,-2.20
2019-01-21T06:05:50.111Z,-2.10
2019-01-21T06:08:57.725Z,-1.90
2019-01-21T06:12:23.526Z,-1.90
2019-01-21T06:15:50.092Z,-2.00
2019-01-21T06:19:14.050Z,-1.90
2019-01-21T06:22:46.977Z,-2.00
2019-01-21T06:26:07.196Z,-1.90
2019-01-21T06:29:29.885Z,-2.10
2019-01-21T06:32:42.091Z,-2.10
2019-01-21T06:36:14.817Z,-1.90
2019-01-21T06:39:11.348Z,-1.90
2019-01-21T06:42:46.636Z,-1.80
2019-01-21T06:45:49.315Z,-1.80
2019-01-21T06:49:32.941Z,-1.80
2019-01-21T06:52:56.345Z,-0.30
2019-01-21T06:56:05.430Z,1.20
2019-01-21T06:59:19.499Z,-0.20
2019-01-21T07:02:45.951Z,-0.80
2019-01-21T07:05:55.388Z,-1.20
2019-01-21T07:09:27.893Z,-1.50
2019-01-21T07:12:55.065Z,-1.50
2019-01-21T07:16:13.924Z,-1.60
2019-01-21T07:19:42.101Z,-1.60
2019-01-21T07:22:45.099Z,-1.70
2019-01-21T07:25:53.451Z,-1.70
2019-01-21T07:29:31.146Z,-1.70
2019-01-21T07:32:36.036Z,-1.80
2019-01-21T07:36:08.426Z,-1.70
2019-01-21T07:39:42.542Z,-1.60
2019-01-21T07:42:56.461Z,-1.80
2019-01-21T07:45:41.503Z,-1.70
2019-01-21T07:49:17.736Z,-1.70
2019-01-21T07:52:34.480Z,-1.50
2019-01-21T07:56:01.841Z,-1.70
2019-01-21T07:59:25.223Z,-1.70
2019-01-21T08:02:09.291Z,-1.80
2019-01-21T08:05:36.807Z,-1.80
2019-01-21T08:08:31.786Z,-1.60
2019-01-21T08:11:57.212Z,-1.60
2019-01-21T08:15:20.826Z,-1.60
2019-01-21T08:18:56.153Z,-1.40
2019-01-21T08:21:48.335Z,-1.60
2019-01-21T08:25:26.304Z,-1.60
2019-01-21T08:28:41.399Z,-1.50
2019-01-21T08:31:28.153Z,-1.50
2019-01-21T08:34:36.654Z,-1.50
2019-01-21T08:38:04.230Z,-1.10
2019-01-21T08:41:11.983Z,-1.20
2019-01-21T08:44:19.971Z,-1.40
2019-01-21T08:47:39.208Z,-1.50
2019-01-21T08:50:57.511Z,-1.60
2019-01-21T08:54:14.533Z,-1.60
2019-01-21T08:57:19.781Z,-1.40
2019-01-21T09:00:32.550Z,-1.30
2019-01-21T09:03:44.887Z,-1.20
2019-01-21T09:06:45.894Z,-1.30
2019-01-21T09:09:41.407Z,-1.10
2019-01-21T09:13:18.021Z,-0.90
2019-01-21T09:16:16.396Z,-0.90
2019-01-21T09:19:56.816Z,-0.70
2019-01-21T09:23:11.411Z,-0.90
2019-01-21T09:26:35.419Z,-1.00
2019-01-21T09:30:07.629Z,-1.00
2019-01-21T09:33:08.555Z,-1.20
2019-01-21T09:36:13.260Z,-1.20
2019-01-21T09:39:08.602Z,-1.20
2019-01-21T09:42:27.353Z,-1.00
2019-01-21T09:45:28.614Z,-1.10
2019-01-21T09:47:56.497Z,-1.00
2019-01-21T09:50:27.632Z,-1.00
2019-01-21T09:52:57.985Z,-1.00
2019-01-21T09:55:28.093Z,-1.00
2019-01-21T09:58:08.808Z,-1.00
2019-01-21T10:00:39.624Z,-0.70
2019-01-21T10:03:13.008Z,-1.00
2019-01-21T10:05:47.814Z,-0.90
2019-01-21T10:08:36.998Z,-0.90
2019-01-21T10:12:12.067Z,-0.80
2019-01-21T10:15:22.675Z,-0.90
2019-01-21T10:18:29.321Z,-1.00
2019-01-21T10:21:58.100Z,-0.80
2019-01-21T10:25:19.547Z,-0.50
2019-01-21T10:28:41.649Z,-0.40
2019-01-21T10:32:27.471Z,-0.60
2019-01-21T10:35:58.495Z,-0.60
2019-01-21T10:39:01.811Z,-0.60
2019-01-21T10:42:29.438Z,-0.70
2019-01-21T10:45:40.627Z,-0.60
2019-01-21T10:49:10.423Z,-0.60
2019-01-21T10:53:05.001Z,-0.60
2019-01-21T10:56:45.312Z,-0.50
2019-01-21T10:59:56.415Z,-0.50
2019-01-21T11:03:31.717Z,-0.40
2019-01-21T11:06:33.114Z,-0.30
2019-01-21T11:09:55.559Z,-0.30
2019-01-21T11:13:14.939Z,-0.40
2019-01-21T11:16:41.612Z,-0.10
2019-01-21T11:19:49.935Z,-0.20
2019-01-21T11:22:49.954Z,-0.30
2019-01-21T11:26:25.951Z,-0.20
2019-01-21T11:29:53.186Z,-0.30
2019-01-21T11:33:21.370Z,-0.50
2019-01-21T11:36:39.798Z,-0.40
2019-01-21T11:40:20.442Z,-0.10
2019-01-21T11:43:25.121Z,-0.20
2019-01-21T11:46:34.133Z,-0.20
2019-01-21T11:49:52.643Z,0.10
2019-01-21T11:52:41.765Z,-0.10
2019-01-21T11:56:04.014Z,-0.20
2019-01-21T11:59:45.635Z,-0.10
2019-01-21T12:03:02.853Z,0.20
2019-01-21T12:06:01.237Z,0.10
2019-01-21T12:09:21.033Z,-0.30
2019-01-21T12:12:33.060Z,-0.20
2019-01-21T12:16:15.783Z,-0.40
2019-01-21T12:19:27.289Z,-0.30
2019-01-21T12:22:59.760Z,-0.10
2019-01-21T12:25:52.154Z,0.00
2019-01-21T12:28:43.197Z,0.40
2019-01-21T12:32:11.437Z,0.20
2019-01-21T12:35:14.710Z,0.40
2019-01-21T12:38:45.436Z,0.10
2019-01-21T12:42:08.586Z,0.30
2019-01-21T12:45:57.762Z,0.00
2019-01-21T12:49:02.679Z,0.00
2019-01-21T12:52:13.558Z,0.20
2019-01-21T12:55:30.860Z,0.30
2019-01-21T12:58:55.418Z,0.10
2019-01-21T13:01:43.244Z,0.10
2019-01-21T13:04:56.858Z,0.30
2019-01-21T13:08:19.134Z,0.30
2019-01-21T13:11:18.579Z,0.30
2019-01-21T13:15:04.354Z,0.30
2019-01-21T13:18:03.880Z,0.30
2019-01-21T13:21:34.780Z,0.10
2019-01-21T13:24:22.711Z,-0.20
2019-01-21T13:27:06.141Z,0.00
2019-01-21T13:29:47.400Z,0.00
2019-01-21T13:33:03.866Z,0.00
2019-01-21T13:36:40.008Z,-0.10
2019-01-21T13:39:54.323Z,-0.10
2019-01-21T13:42:49.359Z,0.00
2019-01-21T13:45:58.891Z,0.20
2019-01-21T13:49:23.039Z,-0.10
2019-01-21T13:52:37.437Z,-0.10
2019-01-21T13:55:25.890Z,-0.30
2019-01-21T13:58:43.114Z,-0.20
2019-01-21T14:01:47.754Z,0.00
2019-01-21T14:05:38.239Z,-0.10
2019-01-21T14:08:38.164Z,-0.10
2019-01-21T14:11:57.090Z,0.10
2019-01-21T14:14:51.194Z,-0.10
2019-01-21T14:18:26.591Z,-0.10
2019-01-21T14:22:09.837Z,-0.20
2019-01-21T14:25:28.718Z,-0.20
2019-01-21T14:28:43.151Z,-0.10
2019-01-21T14:31:56.145Z,-0.20
2019-01-21T14:35:38.264Z,-0.30
2019-01-21T14:39:01.322Z,0.00
2019-01-21T14:42:21.337Z,-0.20
2019-01-21T14:45:50.135Z,-0.30
2019-01-21T14:49:18.288Z,-0.40
2019-01-21T14:52:51.871Z,-0.30
2019-01-21T14:55:50.015Z,-0.30
2019-01-21T14:58:58.038Z,-0.40
2019-01-21T15:02:06.889Z,-0.40
2019-01-21T15:05:14.479Z,-0.40
2019-01-21T15:08:11.092Z,-0.40
2019-01-21T15:11:27.159Z,-0.10
2019-01-21T15:14:05.990Z,-0.40
2019-01-21T15:17:29.355Z,-0.50
2019-01-21T15:20:26.589Z,-0.70
2019-01-21T15:23:47.744Z,-0.50
2019-01-21T15:26:37.907Z,-0.60
2019-01-21T15:29:47.922Z,-0.80
2019-01-21T15:32:44.030Z,-0.70
2019-01-21T15:35:28.650Z,-0.60
2019-01-21T15:38:38.215Z,-0.60
2019-01-21T15:42:00.285Z,-0.80
2019-01-21T15:45:14.522Z,-0.50
2019-01-21T15:48:30.127Z,-0.70
2019-01-21T15:52:18.992Z,-0.60
2019-01-21T15:55:43.345Z,-0.60
2019-01-21T15:58:42.664Z,-0.70
2019-01-21T16:01:53.682Z,-0.80
2019-01-21T16:05:13.477Z,-0.60
2019-01-21T16:08:26.156Z,-0.80
2019-01-21T16:11:44.003Z,-0.80
2019-01-21T16:14:39.162Z,-0.70
2019-01-21T16:18:07.657Z,-0.90
2019-01-21T16:21:19.854Z,-0.70
2019-01-21T16:24:34.033Z,-0.50
2019-01-21T16:27:16.893Z,-0.50
2019-01-21T16:30:29.244Z,-0.60
2019-01-21T16:33:48.831Z,-0.70
2019-01-21T16:37:05.718Z,-0.80
2019-01-21T16:40:06.909Z,-0.70
2019-01-21T16:42:37.987Z,-0.70
2019-01-21T16:45:08.488Z,-0.80
2019-01-21T16:47:38.624Z,-0.90
2019-01-21T16:50:08.790Z,-0.80
2019-01-21T16:52:41.150Z,-0.70
2019-01-21T16:55:11.644Z,-0.50
2019-01-21T16:57:41.820Z,-0.60
2019-01-21T17:00:12.578Z,-0.60
2019-01-21T17:02:42.600Z,-0.70
2019-01-21T17:05:13.383Z,-0.70
2019-01-21T17:07:43.355Z,-0.70
2019-01-21T17:10:14.000Z,-0.80
2019-01-21T17:12:44.141Z,-0.80
2019-01-21T17:15:14.700Z,-0.60
2019-01-21T17:17:44.595Z,-0.60
2019-01-21T17:20:18.874Z,-0.50
2019-01-21T17:22:48.996Z,-0.60
2019-01-21T17:25:19.392Z,-0.60
2019-01-21T17:27:49.511Z,-0.70
2019-01-21T17:30:19.724Z,-0.70
2019-01-21T17:32:49.710Z,-0.70
2019-01-21T17:35:19.766Z,-0.70
2019-01-21T17:37:49.854Z,-0.70
2019-01-21T17:40:20.452Z,-0.80
2019-01-21T17:42:50.546Z,-0.50
2019-01-21T17:45:22.726Z,-0.60
2019-01-21T17:47:52.770Z,-0.80
2019-01-21T17:50:23.066Z,-0.90
2019-01-21T17:52:53.252Z,-0.80
2019-01-21T17:55:25.406Z,-0.80
2019-01-21T17:57:55.046Z,-0.80
2019-01-21T18:00:25.284Z,-0.70
2019-01-21T18:02:55.308Z,-0.60
2019-01-21T18:05:25.306Z,1.90
2019-01-21T18:07:55.351Z,1.50
2019-01-21T18:10:25.542Z,0.90
2019-01-21T18:12:55.700Z,0.30
2019-01-21T18:15:25.793Z,0.10
2019-01-21T18:17:55.821Z,-0.20
2019-01-21T18:20:26.522Z,-0.50
2019-01-21T18:22:56.579Z,-0.80
2019-01-21T18:25:26.657Z,-0.70
2019-01-21T18:27:58.242Z,-0.60
2019-01-21T18:30:29.277Z,-0.70
2019-01-21T18:32:59.310Z,-0.70
2019-01-21T18:35:29.291Z,-0.60
2019-01-21T18:37:59.347Z,-0.70
2019-01-21T18:40:29.394Z,-0.70
2019-01-21T18:42:59.448Z,-0.80
2019-01-21T18:45:30.240Z,-0.70
2019-01-21T18:48:00.177Z,-0.60
2019-01-21T18:50:30.337Z,-0.80
2019-01-21T18:53:00.396Z,-0.70
2019-01-21T18:55:30.443Z,-0.50
2019-01-21T18:58:00.352Z,-0.60
2019-01-21T19:00:30.319Z,-0.40
2019-01-21T19:03:00.304Z,-0.70
2019-01-21T19:05:32.139Z,-0.80
2019-01-21T19:08:06.123Z,-0.90
2019-01-21T19:10:36.307Z,-0.70
2019-01-21T19:13:06.588Z,-0.70
2019-01-21T19:15:37.893Z,-0.80
2019-01-21T19:18:08.073Z,-0.70
2019-01-21T19:20:38.155Z,-0.70
2019-01-21T19:23:08.114Z,-0.70
2019-01-21T19:25:38.211Z,-0.70
2019-01-21T19:28:08.312Z,-0.70
2019-01-21T19:30:38.381Z,-0.70
2019-01-21T19:33:08.461Z,-0.60
2019-01-21T19:35:39.555Z,-0.60
2019-01-21T19:38:09.667Z,-0.50
2019-01-21T19:40:40.693Z,-0.50
2019-01-21T19:43:10.674Z,-0.60
2019-01-21T19:45:40.605Z,-0.70
2019-01-21T19:48:10.697Z,-0.80
2019-01-21T19:50:40.838Z,-0.80
2019-01-21T19:53:10.930Z,-0.70
2019-01-21T19:55:43.624Z,-0.50
2019-01-21T19:58:15.802Z,-0.40
2019-01-21T20:00:45.730Z,-0.40
2019-01-21T20:03:15.727Z,-0.80
2019-01-21T20:05:48.982Z,-0.80
2019-01-21T20:08:18.984Z,-0.80
2019-01-21T20:10:49.012Z,-0.70
2019-01-21T20:13:19.037Z,-0.70
2019-01-21T20:15:49.095Z,-0.80
2019-01-21T20:18:19.000Z,-0.60
2019-01-21T20:20:48.919Z,-0.70
2019-01-21T20:23:20.579Z,-0.80
2019-01-21T20:25:50.542Z,-0.90
2019-01-21T20:28:20.534Z,-0.90
2019-01-21T20:30:50.509Z,-0.90
2019-01-21T20:33:20.466Z,-0.90
2019-01-21T20:35:50.720Z,-0.90
2019-01-21T20:38:20.745Z,-1.10
2019-01-21T20:40:50.690Z,-1.00
2019-01-21T20:43:20.671Z,-1.00
2019-01-21T20:45:50.720Z,-1.00
2019-01-21T20:48:21.992Z,-0.70
2019-01-21T20:50:52.117Z,-0.90
2019-01-21T20:53:22.174Z,-1.00
2019-01-21T20:55:52.280Z,-1.00
2019-01-21T20:58:22.323Z,-1.00
2019-01-21T21:00:52.504Z,-1.00
2019-01-21T21:03:22.478Z,-1.00
2019-01-21T21:05:52.588Z,-1.00
2019-01-21T21:08:22.536Z,-0.90
2019-01-21T21:10:52.428Z,-0.90
2019-01-21T21:13:23.700Z,-0.80
2019-01-21T21:15:53.742Z,-0.80
2019-01-21T21:18:23.817Z,-1.00
2019-01-21T21:20:53.746Z,-1.10
2019-01-21T21:23:23.859Z,-1.00
2019-01-21T21:25:53.932Z,-1.00
2019-01-21T21:28:23.817Z,-1.10
2019-01-21T21:30:55.346Z,-1.20
2019-01-21T21:33:25.380Z,-1.10
2019-01-21T21:35:55.374Z,-1.20
2019-01-21T21:38:25.254Z,-1.20
2019-01-21T21:40:55.530Z,-1.10
2019-01-21T21:43:25.582Z,-1.10
2019-01-21T21:45:55.615Z,-1.20
2019-01-21T21:48:31.579Z,-1.20
2019-01-21T21:50:57.404Z,-1.20
2019-01-21T21:53:27.630Z,-1.10
2019-01-21T21:55:58.687Z,-1.00
2019-01-21T21:58:28.598Z,-1.00
2019-01-21T22:00:58.658Z,-0.90
2019-01-21T22:03:28.598Z,-1.00
2019-01-21T22:05:59.848Z,-1.00
2019-01-21T22:08:29.759Z,-1.20
2019-01-21T22:10:59.697Z,-1.10
2019-01-21T22:13:29.609Z,-1.00
2019-01-21T22:15:59.570Z,-1.00
2019-01-21T22:18:29.958Z,-1.10
2019-01-21T22:21:01.419Z,-1.30
2019-01-21T22:23:31.418Z,-1.30
2019-01-21T22:26:02.273Z,-1.10
2019-01-21T22:28:32.251Z,-1.40
2019-01-21T22:31:02.477Z,-1.20
2019-01-21T22:33:32.533Z,-1.20
2019-01-21T22:36:02.523Z,-1.20
2019-01-21T22:38:32.453Z,-1.20
2019-01-21T22:41:02.363Z,-1.20
2019-01-21T22:43:32.387Z,-1.20
2019-01-21T22:46:02.429Z,-1.20
2019-01-21T22:48:32.429Z,-1.10
2019-01-21T22:51:02.537Z,-1.20
2019-01-21T22:53:32.808Z,-0.90
2019-01-21T22:56:02.846Z,-1.10
2019-01-21T22:58:32.783Z,-1.60
2019-01-21T23:01:30.888Z,-1.70
2019-01-21T23:04:01.468Z,-1.60
2019-01-21T23:06:31.615Z,-1.70
2019-01-21T23:09:01.692Z,-1.70
2019-01-21T23:11:31.909Z,-1.90
2019-01-21T23:14:02.102Z,-1.90
2019-01-21T23:16:32.208Z,-2.10
2019-01-21T23:19:02.192Z,-2.10
2019-01-21T23:21:33.578Z,-2.10
2019-01-21T23:24:03.637Z,-1.60
2019-01-21T23:26:34.292Z,-1.20
2019-01-21T23:29:04.768Z,-1.30
2019-01-21T23:31:34.893Z,-1.60
2019-01-21T23:34:05.271Z,-1.80
2019-01-21T23:36:35.209Z,-2.00
2019-01-21T23:39:08.363Z,-1.90
2019-01-21T23:41:38.448Z,-1.80
2019-01-21T23:44:08.518Z,-1.70
2019-01-21T23:46:39.608Z,-1.50
2019-01-21T23:49:09.702Z,-1.50
2019-01-21T23:51:39.755Z,-1.50
2019-01-21T23:54:10.205Z,-1.80
2019-01-21T23:56:40.138Z,-1.80
2019-01-21T23:59:10.157Z,-1.90
